Time;durP1;ratioP1;P1;durP2;ratioP2;P2;SDS_P1;SDS_P2;PMS_P1;PMS_P2;Temp;Humidity;BMP_temperature;BMP_pressure;BME280_temperature;BME280_humidity;BME280_pressure;Samples;Min_cycle;Max_cycle;Signal;HPM_P1;HPM_P2
2022/06/08 00:01:11;;;;;;;1.52;1.42;;;;;;;;;;5041982;28;20667;-85
2022/06/08 00:03:40;;;;;;;2.00;1.80;;;;;;;;;;5045194;28;20232;-85
2022/06/08 00:06:07;;;;;;;1.75;1.65;;;;;;;;;;5044412;28;20194;-85
2022/06/08 00:08:35;;;;;;;2.85;1.38;;;;;;;;;;5046288;28;20578;-84
2022/06/08 00:11:02;;;;;;;1.40;1.30;;;;;;;;;;5043795;28;20206;-84
2022/06/08 00:13:29;;;;;;;1.73;1.63;;;;;;;;;;5045263;28;20206;-82
2022/06/08 00:15:57;;;;;;;2.45;2.25;;;;;;;;;;5046194;28;20188;-84
2022/06/08 00:18:25;;;;;;;1.75;1.65;;;;;;;;;;5037498;28;20200;-83
2022/06/08 00:20:52;;;;;;;1.50;1.40;;;;;;;;;;5041753;28;20200;-85
2022/06/08 00:23:20;;;;;;;1.98;1.77;;;;;;;;;;5034281;28;20227;-85
2022/06/08 00:25:47;;;;;;;1.88;1.77;;;;;;;;;;5044189;28;20196;-85
2022/06/08 00:28:14;;;;;;;1.77;1.65;;;;;;;;;;5048315;28;20227;-87
2022/06/08 00:30:41;;;;;;;2.25;1.67;;;;;;;;;;5044544;28;20210;-86
2022/06/08 00:33:08;;;;;;;2.13;1.60;;;;;;;;;;5037106;28;20192;-86
2022/06/08 00:35:37;;;;;;;2.17;2.00;;;;;;;;;;5045734;28;20211;-84
2022/06/08 00:38:04;;;;;;;2.05;1.85;;;;;;;;;;5033565;28;20206;-85
2022/06/08 00:40:34;;;;;;;1.90;1.80;;;;;;;;;;5045614;28;20567;-85
2022/06/08 00:43:01;;;;;;;3.67;1.58;;;;;;;;;;5047896;28;20265;-87
2022/06/08 00:45:28;;;;;;;2.38;2.17;;;;;;;;;;5048237;28;20211;-87
2022/06/08 00:47:57;;;;;;;2.50;1.80;;;;;;;;;;5040602;28;20210;-86
2022/06/08 00:50:28;;;;;;;2.28;2.13;;;;;;;;;;5038732;28;20669;-85
2022/06/08 00:52:58;;;;;;;1.70;1.60;;;;;;;;;;5041035;28;20670;-85
2022/06/08 00:55:27;;;;;;;2.00;1.80;;;;;;;;;;5034406;28;20204;-85
2022/06/08 00:57:56;;;;;;;2.50;2.30;;;;;;;;;;5048321;28;20697;-85
2022/06/08 01:00:25;;;;;;;2.40;2.20;;;;;;;;;;5035507;28;20211;-85
2022/06/08 01:02:52;;;;;;;1.80;1.70;;;;;;;;;;5035048;28;20729;-85
2022/06/08 01:05:21;;;;;;;3.63;2.15;;;;;;;;;;5033784;28;20227;-85
2022/06/08 01:07:49;;;;;;;2.80;2.60;;;;;;;;;;5036855;28;20204;-85
2022/06/08 01:10:19;;;;;;;3.65;3.10;;;;;;;;;;5035461;28;20698;-85
2022/06/08 01:12:46;;;;;;;2.60;2.40;;;;;;;;;;5034628;28;20596;-88
2022/06/08 01:15:15;;;;;;;2.40;2.20;;;;;;;;;;5036766;28;20543;-87
2022/06/08 01:17:42;;;;;;;3.20;2.90;;;;;;;;;;5035480;28;20208;-87
2022/06/08 01:20:10;;;;;;;3.25;2.30;;;;;;;;;;5038064;28;20831;-87
2022/06/08 01:22:39;;;;;;;2.35;2.15;;;;;;;;;;5032494;28;20223;-86
2022/06/08 01:25:07;;;;;;;2.47;2.28;;;;;;;;;;5034982;28;20223;-85
2022/06/08 01:27:43;;;;;;;2.55;2.35;;;;;;;;;;5047688;28;20574;-84
2022/06/08 01:30:15;;;;;;;2.63;2.42;;;;;;;;;;5036088;28;20720;-87
2022/06/08 01:32:45;;;;;;;2.05;1.95;;;;;;;;;;5039138;28;20203;-85
2022/06/08 01:35:16;;;;;;;3.33;2.50;;;;;;;;;;5040614;28;20215;-84
2022/06/08 01:37:50;;;;;;;3.10;2.90;;;;;;;;;;5042923;28;20199;-85
2022/06/08 01:40:32;;;;;;;3.70;3.40;;;;;;;;;;5031027;28;20227;-85
2022/06/08 01:43:05;;;;;;;2.63;2.42;;;;;;;;;;5041845;28;20314;-86
2022/06/08 01:45:38;;;;;;;3.92;3.63;;;;;;;;;;5042670;28;20301;-86
2022/06/08 01:48:15;;;;;;;4.53;4.15;;;;;;;;;;5038918;28;20199;-87
2022/06/08 01:50:48;;;;;;;4.35;3.97;;;;;;;;;;5046648;28;20245;-86
2022/06/08 01:53:21;;;;;;;4.05;3.75;;;;;;;;;;5049097;28;20661;-86
2022/06/08 01:55:51;;;;;;;6.03;5.53;;;;;;;;;;5040816;28;20202;-87
2022/06/08 01:58:24;;;;;;;4.60;4.20;;;;;;;;;;5050420;28;20203;-85
2022/06/08 02:00:53;;;;;;;4.65;4.25;;;;;;;;;;5036148;28;20202;-85
2022/06/08 02:03:24;;;;;;;3.72;3.42;;;;;;;;;;5040877;28;20214;-86
2022/06/08 02:05:55;;;;;;;6.25;5.20;;;;;;;;;;5045068;28;20194;-87
2022/06/08 02:08:27;;;;;;;7.05;4.97;;;;;;;;;;5047028;28;20206;-83
2022/06/08 02:10:57;;;;;;;5.70;5.20;;;;;;;;;;5041412;28;20551;-85
2022/06/08 02:13:27;;;;;;;5.10;4.70;;;;;;;;;;5034681;28;20646;-83
2022/06/08 02:15:56;;;;;;;5.72;5.22;;;;;;;;;;5036584;28;20685;-84
2022/06/08 02:18:24;;;;;;;5.10;4.60;;;;;;;;;;5039451;28;20614;-83
2022/06/08 02:20:54;;;;;;;6.13;5.63;;;;;;;;;;5040311;28;20675;-87
2022/06/08 02:23:23;;;;;;;6.03;5.43;;;;;;;;;;5044219;28;20605;-87
2022/06/08 02:25:53;;;;;;;5.22;4.82;;;;;;;;;;5043515;28;20257;-88
2022/06/08 02:28:23;;;;;;;4.40;4.00;;;;;;;;;;5037183;28;20253;-87
2022/06/08 02:30:53;;;;;;;4.60;4.20;;;;;;;;;;5040000;28;20192;-87
2022/06/08 02:36:11;;;;;;;6.03;5.50;;;;;;;;;;5033413;28;20417;-86
2022/06/08 02:38:40;;;;;;;4.25;3.90;;;;;;;;;;5051975;28;20203;-86
2022/06/08 02:41:10;;;;;;;2.53;2.33;;;;;;;;;;5045162;28;20290;-86
2022/06/08 02:43:41;;;;;;;3.08;2.88;;;;;;;;;;5031605;28;20200;-86
2022/06/08 02:46:11;;;;;;;3.83;3.53;;;;;;;;;;5037099;28;20214;-87
2022/06/08 02:48:38;;;;;;;2.67;2.47;;;;;;;;;;5049007;28;20300;-87
2022/06/08 02:51:05;;;;;;;2.60;2.40;;;;;;;;;;5039881;28;20562;-85
2022/06/08 02:53:51;;;;;;;4.38;3.97;;;;;;;;;;5041739;28;20199;-87
2022/06/08 02:56:26;;;;;;;4.60;4.20;;;;;;;;;;5033546;28;20199;-86
2022/06/08 02:58:57;;;;;;;8.23;5.07;;;;;;;;;;5045854;28;20244;-87
2022/06/08 03:01:29;;;;;;;4.18;3.80;;;;;;;;;;5032892;28;20191;-87
2022/06/08 03:04:00;;;;;;;5.60;5.10;;;;;;;;;;5048317;28;20256;-89
2022/06/08 03:06:29;;;;;;;4.40;4.00;;;;;;;;;;5045304;28;20219;-88
2022/06/08 03:08:57;;;;;;;2.60;2.40;;;;;;;;;;5042959;28;20199;-85
2022/06/08 03:11:27;;;;;;;3.10;2.90;;;;;;;;;;5043568;28;20536;-85
2022/06/08 03:13:56;;;;;;;8.98;4.75;;;;;;;;;;5039780;28;20196;-86
2022/06/08 03:16:28;;;;;;;7.15;5.15;;;;;;;;;;5032455;28;20206;-85
2022/06/08 03:18:55;;;;;;;6.43;5.90;;;;;;;;;;5048810;28;20199;-86
2022/06/08 03:21:22;;;;;;;3.15;2.95;;;;;;;;;;5030673;28;20241;-85
2022/06/08 03:23:49;;;;;;;5.85;4.78;;;;;;;;;;5038634;28;20195;-87
2022/06/08 03:26:16;;;;;;;3.47;3.20;;;;;;;;;;5047084;28;20199;-88
2022/06/08 03:28:45;;;;;;;3.33;2.92;;;;;;;;;;5047470;28;20206;-88
2022/06/08 03:31:12;;;;;;;5.43;4.93;;;;;;;;;;5034114;28;20761;-87
2022/06/08 03:33:39;;;;;;;4.03;3.72;;;;;;;;;;5039163;28;20634;-87
2022/06/08 03:36:06;;;;;;;5.38;4.97;;;;;;;;;;5039406;28;20199;-88
2022/06/08 03:38:34;;;;;;;5.07;4.60;;;;;;;;;;5044530;28;20199;-88
2022/06/08 03:41:01;;;;;;;3.85;3.55;;;;;;;;;;5045037;28;20243;-85
2022/06/08 03:43:28;;;;;;;4.97;4.57;;;;;;;;;;5035207;28;20203;-86
2022/06/08 03:45:59;;;;;;;5.03;4.53;;;;;;;;;;5037744;28;20293;-86
2022/06/08 03:48:26;;;;;;;6.05;5.47;;;;;;;;;;5038276;28;20673;-85
2022/06/08 03:50:55;;;;;;;6.15;5.65;;;;;;;;;;5039255;28;20601;-85
2022/06/08 03:53:24;;;;;;;3.95;3.63;;;;;;;;;;5051935;28;20597;-88
2022/06/08 03:55:52;;;;;;;5.70;5.25;;;;;;;;;;5042028;28;20200;-88
2022/06/08 03:58:19;;;;;;;7.50;6.80;;;;;;;;;;5050729;28;20716;-87
2022/06/08 04:00:47;;;;;;;4.85;4.43;;;;;;;;;;5037125;28;20192;-88
2022/06/08 04:03:16;;;;;;;7.20;6.35;;;;;;;;;;5040813;28;20199;-89
2022/06/08 04:05:43;;;;;;;5.30;4.90;;;;;;;;;;5042186;28;20682;-86
2022/06/08 04:08:10;;;;;;;5.25;4.85;;;;;;;;;;5043760;28;20206;-86
2022/06/08 04:10:37;;;;;;;5.50;5.10;;;;;;;;;;5051016;28;20238;-85
2022/06/08 04:13:04;;;;;;;3.72;3.42;;;;;;;;;;5039638;28;20207;-84
2022/06/08 04:15:44;;;;;;;6.35;5.85;;;;;;;;;;5034602;28;20211;-87
2022/06/08 04:18:11;;;;;;;4.85;4.45;;;;;;;;;;5042585;28;20191;-85
2022/06/08 04:20:40;;;;;;;5.35;4.85;;;;;;;;;;5043554;28;20238;-87
2022/06/08 04:23:08;;;;;;;5.82;4.80;;;;;;;;;;5043721;28;20713;-88
2022/06/08 04:25:35;;;;;;;6.45;5.85;;;;;;;;;;5045829;28;20223;-87
2022/06/08 04:28:02;;;;;;;5.10;4.65;;;;;;;;;;5042311;28;20208;-87
2022/06/08 04:30:29;;;;;;;5.15;4.72;;;;;;;;;;5040024;28;20219;-88
2022/06/08 04:32:56;;;;;;;5.80;5.38;;;;;;;;;;5035101;28;21222;-87
2022/06/08 04:35:24;;;;;;;4.38;3.97;;;;;;;;;;5034893;28;20222;-86
2022/06/08 04:37:53;;;;;;;5.00;4.60;;;;;;;;;;5044563;28;20199;-85
2022/06/08 04:40:21;;;;;;;7.60;7.00;;;;;;;;;;5043927;28;20567;-85
2022/06/08 04:42:48;;;;;;;6.07;5.68;;;;;;;;;;5036180;28;20215;-87
2022/06/08 04:45:15;;;;;;;5.20;4.80;;;;;;;;;;5034601;28;20223;-87
2022/06/08 04:47:42;;;;;;;5.20;4.75;;;;;;;;;;5043650;28;20210;-86
2022/06/08 04:50:10;;;;;;;4.50;4.10;;;;;;;;;;5051754;28;20198;-87
2022/06/08 04:52:38;;;;;;;4.63;4.22;;;;;;;;;;5043486;28;20199;-86
2022/06/08 04:55:07;;;;;;;4.05;3.75;;;;;;;;;;5045774;28;20202;-86
2022/06/08 04:57:37;;;;;;;4.68;4.32;;;;;;;;;;5045098;28;20199;-87
2022/06/08 05:00:05;;;;;;;3.83;3.53;;;;;;;;;;5036725;28;20230;-88
2022/06/08 05:02:44;;;;;;;4.03;3.72;;;;;;;;;;5048342;28;20281;-87
2022/06/08 05:05:12;;;;;;;3.95;3.65;;;;;;;;;;5044412;28;20314;-87
2022/06/08 05:07:39;;;;;;;4.05;3.65;;;;;;;;;;5041108;28;20199;-89
2022/06/08 05:10:08;;;;;;;4.72;4.32;;;;;;;;;;5049529;28;20272;-86
2022/06/08 05:12:36;;;;;;;4.45;4.03;;;;;;;;;;5045380;28;20207;-86
2022/06/08 05:15:05;;;;;;;3.97;3.67;;;;;;;;;;5041858;28;20233;-89
2022/06/08 05:17:32;;;;;;;3.97;3.67;;;;;;;;;;5047016;28;20199;-86
2022/06/08 05:19:59;;;;;;;3.30;3.10;;;;;;;;;;5041723;28;20207;-86
2022/06/08 05:22:27;;;;;;;3.97;3.60;;;;;;;;;;5050244;28;20222;-89
2022/06/08 05:24:55;;;;;;;3.55;3.25;;;;;;;;;;5046384;28;20214;-86
2022/06/08 05:27:23;;;;;;;3.17;2.97;;;;;;;;;;5043146;28;20207;-90
2022/06/08 05:29:50;;;;;;;3.25;2.95;;;;;;;;;;5039901;28;20220;-88
2022/06/08 05:32:18;;;;;;;3.15;2.88;;;;;;;;;;5046553;28;20285;-86
2022/06/08 05:34:45;;;;;;;2.60;2.40;;;;;;;;;;5039098;28;20698;-86
2022/06/08 05:37:12;;;;;;;2.80;2.60;;;;;;;;;;5038022;28;20697;-87
2022/06/08 05:39:39;;;;;;;3.00;2.80;;;;;;;;;;5041295;28;20199;-85
2022/06/08 05:42:06;;;;;;;3.13;2.83;;;;;;;;;;5034614;28;20269;-87
2022/06/08 05:44:36;;;;;;;3.22;2.92;;;;;;;;;;5036193;28;20199;-86
2022/06/08 05:47:03;;;;;;;3.40;2.83;;;;;;;;;;5043342;28;20195;-89
2022/06/08 05:49:33;;;;;;;2.47;2.38;;;;;;;;;;5039742;28;20196;-91
2022/06/08 05:52:01;;;;;;;3.15;2.88;;;;;;;;;;5038760;28;20218;-88
2022/06/08 05:54:28;;;;;;;2.83;2.63;;;;;;;;;;5047756;28;20617;-87
2022/06/08 05:56:56;;;;;;;2.80;2.60;;;;;;;;;;5038545;28;20253;-87
2022/06/08 05:59:23;;;;;;;2.65;2.45;;;;;;;;;;5039880;28;20202;-90
2022/06/08 06:01:52;;;;;;;2.58;2.38;;;;;;;;;;5045504;28;20207;-92
2022/06/08 06:04:19;;;;;;;2.90;2.70;;;;;;;;;;5044600;28;20200;-91
2022/06/08 06:06:47;;;;;;;2.50;2.30;;;;;;;;;;5042145;28;20225;-89
2022/06/08 06:09:14;;;;;;;2.92;2.55;;;;;;;;;;5041731;28;20269;-90
2022/06/08 06:11:41;;;;;;;1.87;1.77;;;;;;;;;;5038747;28;20210;-91
2022/06/08 06:14:08;;;;;;;2.65;2.45;;;;;;;;;;5044776;28;20464;-89
2022/06/08 06:16:36;;;;;;;2.80;2.60;;;;;;;;;;5044095;28;20225;-88
2022/06/08 06:19:05;;;;;;;2.50;2.30;;;;;;;;;;5038832;28;20462;-88
2022/06/08 06:21:32;;;;;;;2.00;1.90;;;;;;;;;;5035752;28;20704;-88
2022/06/08 06:24:00;;;;;;;2.40;2.20;;;;;;;;;;5044928;28;20205;-88
2022/06/08 06:26:29;;;;;;;2.30;2.10;;;;;;;;;;5049853;28;20499;-86
2022/06/08 06:28:56;;;;;;;2.40;2.20;;;;;;;;;;5049647;28;20461;-86
2022/06/08 06:31:25;;;;;;;2.37;2.17;;;;;;;;;;5030303;28;20457;-90
2022/06/08 06:33:52;;;;;;;3.13;2.03;;;;;;;;;;5034962;28;20674;-88
2022/06/08 06:36:21;;;;;;;2.20;2.00;;;;;;;;;;5040006;28;20472;-85
2022/06/08 06:38:48;;;;;;;2.43;2.23;;;;;;;;;;5039286;28;20214;-85
2022/06/08 06:41:16;;;;;;;2.50;2.30;;;;;;;;;;5036091;28;20462;-85
2022/06/08 06:43:45;;;;;;;2.63;2.43;;;;;;;;;;5039181;28;20958;-85
2022/06/08 06:46:13;;;;;;;1.97;1.83;;;;;;;;;;5037535;28;21029;-86
2022/06/08 06:48:40;;;;;;;2.10;1.90;;;;;;;;;;5032419;28;20516;-85
2022/06/08 06:51:08;;;;;;;2.10;1.90;;;;;;;;;;5036362;28;20459;-85
2022/06/08 06:53:36;;;;;;;2.42;1.90;;;;;;;;;;5038341;28;20205;-83
2022/06/08 06:56:03;;;;;;;1.88;1.77;;;;;;;;;;5041729;28;20195;-83
2022/06/08 06:58:30;;;;;;;2.37;1.80;;;;;;;;;;5038655;28;20198;-86
2022/06/08 07:00:57;;;;;;;1.67;1.57;;;;;;;;;;5035216;28;20475;-83
2022/06/08 07:03:24;;;;;;;1.93;1.73;;;;;;;;;;5034722;28;20476;-84
2022/06/08 07:05:51;;;;;;;2.63;1.60;;;;;;;;;;5036930;28;20480;-83
2022/06/08 07:08:19;;;;;;;2.45;2.25;;;;;;;;;;5038462;28;20479;-85
2022/06/08 07:11:32;;;;;;;2.33;1.58;;;;;;;;;;5042651;28;20203;-85
2022/06/08 07:13:35;;;;;;;1.80;1.70;;;;;;;;;;5032031;28;20199;-83
2022/06/08 07:16:02;;;;;;;2.20;2.00;;;;;;;;;;5036745;28;20460;-83
2022/06/08 07:18:29;;;;;;;2.37;2.17;;;;;;;;;;5038814;28;20469;-81
2022/06/08 07:20:56;;;;;;;2.10;1.90;;;;;;;;;;5030438;28;20807;-83
2022/06/08 07:23:23;;;;;;;2.20;1.97;;;;;;;;;;5029123;28;20545;-85
2022/06/08 07:25:54;;;;;;;1.93;1.80;;;;;;;;;;5037965;28;20892;-85
2022/06/08 07:28:22;;;;;;;2.70;1.60;;;;;;;;;;5033090;28;20980;-83
2022/06/08 07:30:49;;;;;;;6.90;1.63;;;;;;;;;;5034330;28;20512;-86
2022/06/08 07:33:16;;;;;;;2.90;1.37;;;;;;;;;;5034950;28;20491;-86
2022/06/08 07:35:44;;;;;;;1.60;1.20;;;;;;;;;;5036904;28;20462;-86
2022/06/08 07:38:11;;;;;;;1.40;1.30;;;;;;;;;;5038028;28;20582;-83
2022/06/08 07:40:38;;;;;;;1.40;1.30;;;;;;;;;;5040523;28;20832;-81
2022/06/08 07:43:07;;;;;;;2.07;1.60;;;;;;;;;;5037470;28;20492;-82
2022/06/08 07:45:34;;;;;;;1.80;1.20;;;;;;;;;;5036981;28;20477;-82
2022/06/08 07:50:45;;;;;;;1.53;1.43;;;;;;;;;;5036871;28;21081;-81
2022/06/08 07:53:13;;;;;;;1.53;1.17;;;;;;;;;;5033262;28;20468;-85
2022/06/08 07:55:40;;;;;;;1.20;1.00;;;;;;;;;;5034475;28;20953;-82
2022/06/08 07:58:08;;;;;;;2.90;1.50;;;;;;;;;;5034188;28;20465;-83
2022/06/08 08:00:35;;;;;;;1.40;1.23;;;;;;;;;;5033863;28;20464;-81
2022/06/08 08:03:04;;;;;;;1.67;1.20;;;;;;;;;;5033513;28;20940;-84
2022/06/08 08:05:31;;;;;;;1.20;1.03;;;;;;;;;;5035906;28;20596;-87
2022/06/08 08:07:58;;;;;;;2.70;1.30;;;;;;;;;;5035710;28;20465;-88
2022/06/08 08:10:27;;;;;;;1.73;1.37;;;;;;;;;;5037866;28;20466;-86
2022/06/08 08:12:55;;;;;;;1.40;1.00;;;;;;;;;;5033903;28;20465;-82
2022/06/08 08:15:24;;;;;;;1.27;1.10;;;;;;;;;;5038550;28;20545;-81
2022/06/08 08:17:52;;;;;;;1.83;1.07;;;;;;;;;;5037437;28;20967;-80
2022/06/08 08:20:19;;;;;;;1.40;1.10;;;;;;;;;;5036962;28;20465;-80
2022/06/08 08:22:47;;;;;;;1.47;1.10;;;;;;;;;;5033324;28;20458;-80
2022/06/08 08:25:15;;;;;;;2.70;1.17;;;;;;;;;;5034301;28;20549;-81
2022/06/08 08:27:42;;;;;;;2.03;1.30;;;;;;;;;;5032689;28;20981;-81
2022/06/08 08:30:11;;;;;;;1.63;1.00;;;;;;;;;;5031501;28;20922;-79
2022/06/08 08:32:40;;;;;;;1.10;0.83;;;;;;;;;;5030408;28;20458;-85
2022/06/08 08:35:08;;;;;;;2.40;1.10;;;;;;;;;;5030906;28;20474;-80
2022/06/08 08:37:35;;;;;;;1.33;1.03;;;;;;;;;;5035963;28;20462;-79
2022/06/08 08:40:02;;;;;;;1.53;0.97;;;;;;;;;;5050481;28;20576;-80
2022/06/08 08:42:29;;;;;;;1.20;1.03;;;;;;;;;;5050909;28;20492;-78
2022/06/08 08:44:57;;;;;;;1.00;0.90;;;;;;;;;;5037961;28;21152;-78
2022/06/08 08:47:38;;;;;;;1.20;0.80;;;;;;;;;;5045446;28;20478;-79
2022/06/08 08:50:12;;;;;;;1.50;1.00;;;;;;;;;;5035356;28;20519;-78
2022/06/08 08:52:41;;;;;;;1.10;1.00;;;;;;;;;;5042376;28;20466;-79
2022/06/08 08:55:17;;;;;;;1.40;1.27;;;;;;;;;;5040912;28;20458;-81
2022/06/08 08:57:48;;;;;;;1.13;0.90;;;;;;;;;;5046908;28;20544;-78
2022/06/08 09:00:18;;;;;;;1.10;0.83;;;;;;;;;;5042524;28;20472;-84
2022/06/08 09:05:33;;;;;;;1.80;1.10;;;;;;;;;;5033558;28;20532;-82
2022/06/08 09:08:00;;;;;;;1.00;0.80;;;;;;;;;;5040098;28;20533;-83
2022/06/08 09:10:28;;;;;;;1.83;1.00;;;;;;;;;;5034702;28;20947;-82
2022/06/08 09:12:56;;;;;;;1.00;0.90;;;;;;;;;;5035341;28;20480;-81
2022/06/08 09:15:38;;;;;;;1.93;0.80;;;;;;;;;;5038661;28;20508;-81
2022/06/08 09:18:05;;;;;;;0.97;0.83;;;;;;;;;;5038071;28;20441;-83
2022/06/08 09:20:35;;;;;;;1.40;1.00;;;;;;;;;;5045608;28;20932;-81
2022/06/08 09:23:05;;;;;;;2.80;1.10;;;;;;;;;;5040535;28;20844;-81
2022/06/08 09:25:34;;;;;;;1.37;0.90;;;;;;;;;;5041431;28;20936;-82
2022/06/08 09:28:02;;;;;;;1.40;1.00;;;;;;;;;;5044631;28;20895;-80
2022/06/08 09:30:29;;;;;;;1.47;1.00;;;;;;;;;;5046210;28;20975;-81
2022/06/08 09:32:58;;;;;;;1.30;0.93;;;;;;;;;;5050048;28;20453;-82
2022/06/08 09:35:28;;;;;;;1.23;1.13;;;;;;;;;;5042818;28;20553;-81
2022/06/08 09:37:58;;;;;;;1.00;0.80;;;;;;;;;;5042155;28;20453;-81
2022/06/08 09:40:40;;;;;;;1.27;0.70;;;;;;;;;;5045095;28;20481;-81
2022/06/08 09:43:17;;;;;;;2.07;0.87;;;;;;;;;;5039263;28;20572;-81
2022/06/08 09:45:49;;;;;;;1.20;1.00;;;;;;;;;;5037458;28;20454;-82
2022/06/08 09:51:26;;;;;;;1.10;0.87;;;;;;;;;;5042480;28;20568;-80
2022/06/08 09:53:58;;;;;;;2.27;0.83;;;;;;;;;;5038748;28;20979;-81
2022/06/08 09:56:32;;;;;;;1.20;1.00;;;;;;;;;;5045517;28;20457;-80
2022/06/08 09:59:11;;;;;;;1.30;1.00;;;;;;;;;;5048774;28;20452;-81
2022/06/08 10:01:41;;;;;;;1.03;0.87;;;;;;;;;;5038340;28;20949;-79
2022/06/08 10:04:26;;;;;;;1.17;1.03;;;;;;;;;;5045817;28;20516;-79
2022/06/08 10:06:59;;;;;;;1.07;0.97;;;;;;;;;;5035578;28;21043;-80
2022/06/08 10:09:32;;;;;;;2.70;1.10;;;;;;;;;;5041655;28;20489;-80
2022/06/08 10:12:04;;;;;;;1.33;0.93;;;;;;;;;;5049791;28;20441;-80
2022/06/08 10:14:36;;;;;;;1.53;0.90;;;;;;;;;;5041849;28;20477;-81
2022/06/08 10:17:06;;;;;;;2.13;0.90;;;;;;;;;;5037623;28;20457;-81
2022/06/08 10:19:39;;;;;;;1.50;1.00;;;;;;;;;;5039291;28;20526;-80
2022/06/08 10:22:06;;;;;;;1.10;1.00;;;;;;;;;;5042329;28;20460;-81
2022/06/08 10:24:42;;;;;;;2.87;1.10;;;;;;;;;;5051871;28;20438;-81
2022/06/08 10:27:13;;;;;;;3.10;1.10;;;;;;;;;;5041253;28;20481;-77
2022/06/08 10:29:42;;;;;;;1.77;0.80;;;;;;;;;;5039284;28;20984;-81
2022/06/08 10:32:14;;;;;;;1.23;0.90;;;;;;;;;;5039303;28;20940;-82
2022/06/08 10:34:41;;;;;;;1.20;0.80;;;;;;;;;;5039185;28;21011;-82
2022/06/08 10:37:11;;;;;;;1.60;0.90;;;;;;;;;;5043372;28;20454;-83
2022/06/08 10:39:40;;;;;;;1.20;0.90;;;;;;;;;;5036239;28;20453;-83
2022/06/08 10:45:02;;;;;;;1.10;0.90;;;;;;;;;;5044815;28;20436;-81
2022/06/08 10:47:30;;;;;;;1.00;0.80;;;;;;;;;;5042239;28;20515;-84
2022/06/08 10:50:13;;;;;;;1.70;1.00;;;;;;;;;;5036634;28;20457;-82
2022/06/08 10:52:41;;;;;;;1.10;0.90;;;;;;;;;;5035542;28;20456;-81
2022/06/08 10:55:41;;;;;;;2.90;1.40;;;;;;;;;;5029869;28;20463;-80
2022/06/08 10:58:12;;;;;;;2.00;0.80;;;;;;;;;;4970991;28;20467;-79
2022/06/08 11:00:52;;;;;;;1.07;0.80;;;;;;;;;;4968991;28;20483;-80
2022/06/08 11:03:32;;;;;;;0.97;0.80;;;;;;;;;;5008427;28;20900;-80
2022/06/08 11:05:59;;;;;;;1.30;0.80;;;;;;;;;;5034748;28;20547;-79
2022/06/08 11:08:51;;;;;;;1.37;0.90;;;;;;;;;;5033042;28;20486;-81
2022/06/08 11:11:33;;;;;;;2.07;0.90;;;;;;;;;;5029520;28;20868;-80
2022/06/08 11:14:03;;;;;;;1.43;0.90;;;;;;;;;;5034929;28;20446;-83
2022/06/08 11:16:32;;;;;;;3.33;1.20;;;;;;;;;;5034474;28;20512;-80
2022/06/08 11:19:02;;;;;;;1.43;1.10;;;;;;;;;;5035095;28;20547;-79
2022/06/08 11:21:38;;;;;;;1.30;1.10;;;;;;;;;;5030679;28;20458;-79
2022/06/08 11:24:14;;;;;;;1.30;1.07;;;;;;;;;;5037304;28;22576;-79
2022/06/08 11:26:50;;;;;;;2.43;0.77;;;;;;;;;;5040162;28;20520;-83
2022/06/08 11:29:36;;;;;;;1.57;0.97;;;;;;;;;;5045277;28;20959;-79
2022/06/08 11:32:05;;;;;;;4.40;1.27;;;;;;;;;;5040860;28;20453;-81
2022/06/08 11:34:47;;;;;;;1.30;0.90;;;;;;;;;;5041446;28;20795;-81
2022/06/08 11:37:20;;;;;;;0.90;0.70;;;;;;;;;;5044437;28;20836;-81
2022/06/08 11:39:52;;;;;;;2.10;0.80;;;;;;;;;;5042836;28;20465;-81
2022/06/08 11:42:22;;;;;;;1.10;0.80;;;;;;;;;;5038109;28;21091;-80
2022/06/08 11:44:51;;;;;;;1.03;0.70;;;;;;;;;;5034687;28;20537;-81
2022/06/08 11:47:21;;;;;;;0.93;0.70;;;;;;;;;;5033856;28;20511;-81
2022/06/08 11:49:55;;;;;;;1.20;0.80;;;;;;;;;;5034801;28;20477;-81
2022/06/08 11:52:40;;;;;;;1.20;0.80;;;;;;;;;;5028842;28;20484;-79
2022/06/08 11:55:13;;;;;;;1.03;0.87;;;;;;;;;;5041106;28;20936;-80
2022/06/08 11:57:41;;;;;;;1.40;0.90;;;;;;;;;;5040931;28;20791;-81
2022/06/08 12:00:17;;;;;;;2.50;1.00;;;;;;;;;;5035619;28;20468;-81
2022/06/08 12:02:46;;;;;;;1.00;0.83;;;;;;;;;;5032600;28;20829;-81
2022/06/08 12:05:13;;;;;;;2.67;1.00;;;;;;;;;;5031782;28;20466;-79
2022/06/08 12:07:43;;;;;;;1.40;0.93;;;;;;;;;;5038175;28;20482;-79
2022/06/08 12:10:12;;;;;;;2.47;0.93;;;;;;;;;;5030739;28;20461;-81
2022/06/08 12:12:43;;;;;;;1.80;0.90;;;;;;;;;;5031335;28;20967;-80
2022/06/08 12:15:26;;;;;;;1.40;0.80;;;;;;;;;;5038384;28;21223;-80
2022/06/08 12:17:55;;;;;;;1.20;0.80;;;;;;;;;;5032808;28;20887;-80
2022/06/08 12:20:32;;;;;;;1.30;1.00;;;;;;;;;;5033525;28;20449;-82
2022/06/08 12:23:00;;;;;;;1.60;1.00;;;;;;;;;;5035288;28;20972;-84
2022/06/08 12:25:28;;;;;;;2.87;1.17;;;;;;;;;;5037909;28;20492;-81
2022/06/08 12:27:56;;;;;;;1.40;0.90;;;;;;;;;;5034933;28;20518;-83
2022/06/08 12:30:25;;;;;;;3.60;0.93;;;;;;;;;;5032982;28;20458;-84
2022/06/08 12:32:53;;;;;;;1.40;1.00;;;;;;;;;;5040813;28;20568;-85
2022/06/08 12:35:27;;;;;;;1.40;0.93;;;;;;;;;;5033428;28;21021;-82
2022/06/08 12:38:24;;;;;;;1.43;0.90;;;;;;;;;;5037677;28;20820;-82
2022/06/08 12:41:02;;;;;;;1.23;0.80;;;;;;;;;;4993525;28;20975;-82
2022/06/08 12:43:40;;;;;;;1.10;0.90;;;;;;;;;;5026848;28;20536;-84
2022/06/08 12:46:16;;;;;;;1.83;1.00;;;;;;;;;;5029938;28;20901;-83
2022/06/08 12:48:46;;;;;;;1.37;1.07;;;;;;;;;;5036642;28;20480;-82
2022/06/08 12:51:26;;;;;;;1.83;0.90;;;;;;;;;;5044169;28;20500;-83
2022/06/08 12:53:53;;;;;;;1.23;0.90;;;;;;;;;;5048885;28;20446;-82
2022/06/08 12:56:22;;;;;;;2.03;1.07;;;;;;;;;;5039203;28;21210;-82
2022/06/08 12:58:49;;;;;;;1.10;0.80;;;;;;;;;;5043151;28;20817;-84
2022/06/08 13:01:18;;;;;;;1.60;1.10;;;;;;;;;;5043707;28;20504;-84
2022/06/08 13:03:45;;;;;;;2.50;1.03;;;;;;;;;;5043921;28;20441;-82
2022/06/08 13:06:12;;;;;;;1.20;0.80;;;;;;;;;;5034996;28;20937;-79
2022/06/08 13:08:41;;;;;;;2.50;1.10;;;;;;;;;;5033607;28;20496;-80
2022/06/08 13:11:12;;;;;;;1.50;0.80;;;;;;;;;;5028820;28;20458;-79
2022/06/08 13:13:40;;;;;;;2.63;1.20;;;;;;;;;;5034627;28;21209;-83
2022/06/08 13:16:13;;;;;;;1.70;1.30;;;;;;;;;;5034318;28;20996;-84
2022/06/08 13:18:40;;;;;;;2.77;1.40;;;;;;;;;;5037611;28;20448;-88
2022/06/08 13:21:08;;;;;;;1.90;1.20;;;;;;;;;;5042265;28;20454;-80
2022/06/08 13:23:35;;;;;;;2.17;1.97;;;;;;;;;;5044533;28;20463;-82
2022/06/08 13:26:04;;;;;;;1.73;0.90;;;;;;;;;;5043616;28;20457;-89
2022/06/08 13:28:32;;;;;;;3.40;1.07;;;;;;;;;;5051916;28;20500;-82
2022/06/08 13:31:00;;;;;;;1.87;1.13;;;;;;;;;;5041843;28;20963;-86
2022/06/08 13:36:17;;;;;;;3.57;1.67;;;;;;;;;;5049202;28;20463;-85
2022/06/08 13:38:45;;;;;;;2.43;1.10;;;;;;;;;;5046357;28;20496;-87
2022/06/08 13:41:13;;;;;;;1.50;1.10;;;;;;;;;;5041268;28;20916;-87
2022/06/08 13:43:40;;;;;;;2.87;1.30;;;;;;;;;;5050581;28;20446;-86
2022/06/08 13:46:08;;;;;;;2.83;1.10;;;;;;;;;;5041304;28;20863;-87
2022/06/08 13:48:36;;;;;;;4.60;1.50;;;;;;;;;;5044130;28;20489;-87
2022/06/08 13:51:03;;;;;;;1.60;1.00;;;;;;;;;;5035180;28;20487;-87
2022/06/08 13:53:30;;;;;;;2.57;1.20;;;;;;;;;;5037686;28;20489;-85
2022/06/08 13:56:00;;;;;;;1.70;1.30;;;;;;;;;;5042394;28;20849;-87
2022/06/08 13:58:29;;;;;;;1.83;1.70;;;;;;;;;;5045465;28;20460;-88
2022/06/08 14:00:58;;;;;;;4.10;1.40;;;;;;;;;;5051313;28;20810;-87
2022/06/08 14:03:26;;;;;;;1.63;1.13;;;;;;;;;;5035381;28;20462;-87
2022/06/08 14:14:08;;;;;;;2.70;1.10;;;;;;;;;;5020007;28;20441;-84
2022/06/08 14:16:37;;;;;;;2.43;1.27;;;;;;;;;;5050985;28;20547;-86
2022/06/08 14:19:09;;;;;;;2.27;1.30;;;;;;;;;;5043183;28;20482;-85
2022/06/08 14:21:36;;;;;;;2.90;1.30;;;;;;;;;;5034537;28;20522;-86
2022/06/08 14:24:04;;;;;;;3.80;1.30;;;;;;;;;;5033401;28;20853;-85
2022/06/08 14:26:31;;;;;;;2.23;1.30;;;;;;;;;;5036480;28;20469;-86
2022/06/08 14:28:59;;;;;;;4.20;1.33;;;;;;;;;;5051401;28;20987;-84
2022/06/08 14:31:29;;;;;;;3.23;1.83;;;;;;;;;;5047700;28;20469;-85
2022/06/08 14:33:58;;;;;;;2.60;2.13;;;;;;;;;;5038784;28;20509;-85
2022/06/08 14:36:26;;;;;;;7.30;3.00;;;;;;;;;;5044626;28;20522;-82
2022/06/08 14:38:53;;;;;;;2.80;2.13;;;;;;;;;;5045893;28;20198;-81
2022/06/08 14:41:21;;;;;;;7.03;1.90;;;;;;;;;;5046931;28;20505;-82
2022/06/08 14:43:48;;;;;;;4.00;1.90;;;;;;;;;;5043538;28;20460;-81
2022/06/08 14:46:16;;;;;;;2.30;1.92;;;;;;;;;;5034948;28;20900;-81
2022/06/08 14:48:46;;;;;;;5.03;1.40;;;;;;;;;;5040730;28;20233;-81
2022/06/08 14:51:14;;;;;;;2.33;1.50;;;;;;;;;;5034308;28;20471;-80
2022/06/08 14:53:42;;;;;;;3.63;1.87;;;;;;;;;;5044790;28;20487;-83
2022/06/08 14:56:27;;;;;;;5.03;1.80;;;;;;;;;;5042766;28;20655;-82
2022/06/08 14:58:54;;;;;;;3.73;1.30;;;;;;;;;;5039307;28;20553;-83
2022/06/08 15:01:23;;;;;;;3.37;1.63;;;;;;;;;;5038894;28;20454;-83
2022/06/08 15:03:52;;;;;;;3.53;1.60;;;;;;;;;;5041760;28;20559;-84
2022/06/08 15:06:19;;;;;;;3.10;1.50;;;;;;;;;;5036343;28;20500;-82
2022/06/08 15:08:47;;;;;;;2.43;1.53;;;;;;;;;;5043301;28;20489;-83
2022/06/08 15:14:01;;;;;;;3.43;1.60;;;;;;;;;;5044253;28;20459;-84
2022/06/08 15:16:28;;;;;;;3.37;1.33;;;;;;;;;;5047841;28;20472;-83
2022/06/08 15:18:57;;;;;;;3.50;1.70;;;;;;;;;;5037365;28;20462;-83
2022/06/08 15:21:24;;;;;;;3.20;1.50;;;;;;;;;;5042804;28;20462;-82
2022/06/08 15:23:51;;;;;;;3.10;1.40;;;;;;;;;;5044158;28;20826;-83
2022/06/08 15:26:18;;;;;;;2.20;1.63;;;;;;;;;;5031416;28;21083;-82